Flight Track Log - Related Links

Times and Time Zones

All times are in EST time to prevent confusion due to time zone crossing. See the N606FT flight status page for this flight to view local times or setup timezone preferences in your user account.

Time Position Orientation Groundspeed Altitude Reporting Facility
EST Latitude Longitude Course Direction KTS km/h feet Rate Location/Type
Mon 11:26:36 27.0550 -81.9267 20° North 90 167 3.000  Level Miami Center
Mon 11:27:36 27.0764 -81.9183 19° North 90 167 3.600 550 Climbing Miami Center
Mon 11:28:36 27.1017 -81.9103 16° North 85 158 4.100 500 Climbing Miami Center
Mon 11:29:36 27.1247 -81.9064 North 85 158 4.600 450 Climbing Miami Center
Mon 11:30:36 27.1503 -81.8911 28° Northeast 91 169 5.000 450 Climbing Miami Center
Mon 11:31:00 27.2757 -81.8482 20° North  Level Estimated
Mon 11:31:36 27.1758 -81.8806 20° North 91 169 5.500  Level Miami Center
Mon 11:32:36 27.2053 -81.8703 17° North 91 169 5.500 -50 Level Miami Center
Mon 11:33:36 27.2308 -81.8528 31° Northeast 91 169 5.400  Descending Miami Center
Mon 11:34:36 27.2586 -81.8400 22° Northeast 96 177 5.500 100 Climbing Miami Center
Mon 11:35:36 27.2858 -81.8317 15° North 101 187 5.600 50 Climbing Miami Center
Mon 11:36:36 27.3133 -81.8236 15° North 101 187 5.600  Level Miami Center
Mon 11:37:36 27.3408 -81.8156 15° North 96 177 5.600  Level Miami Center
Mon 11:38:36 27.3681 -81.8072 15° North 96 177 5.600 -50 Level Miami Center
Mon 11:39:36 27.3956 -81.8014 11° North 96 177 5.500 -50 Descending Miami Center
Mon 11:40:36 27.4208 -81.7931 16° North 96 177 5.500 50 Level Miami Center
Mon 11:41:36 27.4461 -81.7850 16° North 96 177 5.600 50 Climbing Miami Center
Mon 11:42:36 27.4717 -81.7742 21° North 96 177 5.600  Level Miami Center
Mon 11:43:36 27.4969 -81.7636 20° North 91 169 5.600 -50 Level Miami Center
Mon 11:44:36 27.5244 -81.7531 19° North 91 169 5.500 -50 Descending Miami Center
Mon 11:45:36 27.5497 -81.7447 16° North 91 169 5.500  Level Miami Center
Mon 11:46:36 27.5733 -81.7294 30° Northeast 91 169 5.500  Level Miami Center
Mon 11:47:36 27.5964 -81.7211 18° North 91 169 5.500  Level Miami Center
Mon 11:48:36 27.6197 -81.7103 22° Northeast 91 169 5.500 50 Level Miami Center
Mon 11:49:36 27.6472 -81.6997 19° North 91 169 5.600  Climbing Miami Center
Mon 11:50:36 27.6686 -81.6889 24° Northeast 91 169 5.500  Descending Miami Center
Mon 11:51:36 27.6981 -81.6761 21° North 91 169 5.600 50 Climbing Miami Center
Mon 11:52:36 27.7236 -81.6678 16° North 91 169 5.600  Level Miami Center
Mon 11:53:36 27.7489 -81.6572 20° North 91 169 5.600 -50 Level Miami Center
Mon 11:54:36 27.7722 -81.6489 18° North 91 169 5.500  Descending Miami Center
Mon 11:55:36 27.7975 -81.6406 16° North 91 169 5.600 50 Climbing Miami Center
Mon 11:56:36 27.8228 -81.6322 16° North 91 169 5.600  Level Miami Center
Mon 11:57:36 27.8503 -81.6239 15° North 91 169 5.600  Level Miami Center
Mon 11:59:52 27.9167 -81.6000 18° North 97 180 5.600  Level Orlando TRACON
Mon 12:00:46 27.9333 -81.6000 360° North 96 177 5.600  Level Orlando TRACON
Mon 12:01:46 27.9667 -81.6000 360° North 96 177 5.600 -250 Level Orlando TRACON
Mon 12:02:46 27.9833 -81.5833 41° Northeast 99 183 5.100 -650 Descending Orlando TRACON
Mon 12:03:46 28.0167 -81.5833 360° North 102 188 4.300 -793 Descending Orlando TRACON
Mon 12:04:47 28.0333 -81.5667 41° Northeast 106 196 3.500 -397 Descending Orlando TRACON
Mon 12:05:47 28.0667 -81.5500 24° Northeast 101 187 3.500  Level Orlando TRACON
Mon 12:06:47 28.0833 -81.5333 41° Northeast 97 180 3.500 -157 Level Orlando TRACON
Mon 12:07:42 28.1167 -81.5167 24° Northeast 99 183 3.200 -347 Descending Orlando TRACON
Mon 12:08:48 28.1333 -81.5000 41° Northeast 96 177 2.800 -476 Descending Orlando TRACON
Mon 12:09:48 28.1667 -81.5000 360° North 90 167 2.200 -350 Descending Orlando TRACON
Mon 12:10:48 28.1833 -81.5000 360° North 97 180 2.100 -300 Descending Orlando TRACON
Mon 12:11:48 28.2167 -81.5000 360° North 96 177 1.600 -500 Descending Orlando TRACON

Login

Don't have an account? Register now (free) for customized features, flight alerts, and more!